< Cyclone 200806 2008 Season Cyclone 200811 >
Cyclone 200808 (Helen)
General InformationDetailed Track InformationTrack Information on Google MapsList of All Images || ResourceGoogle EarthGE AnimationAtom FeedGeoJSON
Detalied Best Track Wind (Time Zone = UTC)
Year Month Day Hour Lat. Long. Wind (kt) Gust (kt) Direc. of Major Storm Axis Radius of Major Storm Axis (nm) Radius of Minor Storm Axis (nm) Direc. of Major Gale Axis Radius of Major Gale Axis (nm) Radius of Minor Gale Axis (nm) Image
2007 12 28 00 -13.1 130.9 0 -1 symmetric - - symmetric - - Image
2007 12 28 03 -13.4 131.7 0 -1 symmetric - - symmetric - - Image
2007 12 28 06 -13.7 132.0 0 -1 symmetric - - symmetric - - Image
2007 12 28 09 -13.5 132.5 0 -1 symmetric - - symmetric - - Image
2007 12 28 12 -13.3 132.8 0 -1 symmetric - - symmetric - - Image
2007 12 28 15 -13.1 132.8 0 -1 symmetric - - symmetric - - Image
2007 12 28 18 -13.0 132.8 0 -1 symmetric - - symmetric - - Image
2007 12 28 21 -13.0 132.8 0 -1 symmetric - - symmetric - - Image
2007 12 29 00 -12.9 132.8 0 -1 symmetric - - symmetric - - Image
2007 12 29 03 -12.7 132.7 0 -1 symmetric - - symmetric - - Image
2007 12 29 06 -12.6 132.7 0 -1 symmetric - - symmetric - - Image
2007 12 29 09 -12.6 132.8 0 -1 symmetric - - symmetric - - Image
2007 12 29 12 -12.5 132.8 0 -1 symmetric - - symmetric - - Image
2007 12 29 15 -12.6 132.9 0 -1 symmetric - - symmetric - - Image
2007 12 29 18 -12.6 133.0 0 -1 symmetric - - symmetric - - Image
2007 12 29 21 -12.7 133.1 0 -1 symmetric - - symmetric - - Image
2007 12 30 00 -12.9 133.2 0 -1 symmetric - - symmetric - - Image
2007 12 30 03 -13.1 133.4 0 -1 symmetric - - symmetric - - Image
2007 12 30 06 -13.2 133.5 0 -1 symmetric - - symmetric - - Image
2007 12 30 09 -13.3 133.7 0 -1 symmetric - - symmetric - - Image
2007 12 30 12 -13.4 134.1 0 -1 symmetric - - symmetric - - Image
2007 12 30 15 -13.5 134.4 0 -1 symmetric - - symmetric - - Image
2007 12 30 18 -13.7 134.5 0 -1 symmetric - - symmetric - - Image
2007 12 30 21 -14.1 134.6 0 -1 symmetric - - symmetric - - Image
2007 12 31 00 -14.5 134.7 0 -1 symmetric - - symmetric - - Image
2007 12 31 03 -14.8 134.9 0 -1 symmetric - - symmetric - - Image
2007 12 31 06 -15.0 135.0 0 -1 symmetric - - symmetric - - Image
2007 12 31 09 -15.3 135.0 0 -1 symmetric - - symmetric - - Image
2007 12 31 12 -15.5 134.9 0 -1 symmetric - - symmetric - - Image
2007 12 31 15 -15.6 134.8 0 -1 symmetric - - symmetric - - Image
2007 12 31 18 -15.7 134.6 0 -1 symmetric - - symmetric - - Image
2007 12 31 21 -15.8 134.5 0 -1 symmetric - - symmetric - - Image
2008 1 1 00 -15.8 134.3 0 -1 symmetric - - symmetric - - Image
2008 1 1 03 -15.7 134.0 0 -1 symmetric - - symmetric - - Image
2008 1 1 06 -15.7 133.6 0 -1 symmetric - - symmetric - - Image
2008 1 1 09 -15.6 133.1 0 -1 symmetric - - symmetric - - Image
2008 1 1 12 -15.6 132.4 0 -1 symmetric - - symmetric - - Image
2008 1 1 15 -15.6 131.5 0 -1 symmetric - - symmetric - - Image
2008 1 1 18 -15.5 131.0 0 -1 symmetric - - symmetric - - Image
2008 1 1 21 -15.3 130.6 0 -1 symmetric - - symmetric - - Image
2008 1 2 00 -14.7 130.0 0 -1 symmetric - - symmetric - - Image
2008 1 2 03 -14.6 129.8 0 -1 symmetric - - symmetric - - Image
2008 1 2 06 -14.4 129.7 0 -1 symmetric - - symmetric - - Image
2008 1 2 09 -14.3 129.6 0 -1 symmetric - - symmetric - - Image
2008 1 2 12 -14.1 129.4 0 -1 symmetric - - symmetric - - Image
2008 1 2 15 -13.9 129.2 0 -1 symmetric - - symmetric - - Image
2008 1 2 18 -13.9 129.0 0 -1 symmetric - - symmetric - - Image
2008 1 2 21 -13.9 128.8 0 -1 symmetric - - symmetric - - Image
2008 1 3 00 -14.0 128.6 0 -1 symmetric - - symmetric - - Image
2008 1 3 03 -14.0 128.3 0 -1 symmetric - - symmetric - - Image
2008 1 3 06 -14.0 127.9 0 -1 symmetric - - symmetric - - Image
2008 1 3 09 -14.0 127.8 0 -1 symmetric - - symmetric - - Image
2008 1 3 12 -14.0 127.8 0 -1 symmetric - - symmetric - - Image
2008 1 3 15 -14.0 127.7 0 -1 symmetric - - symmetric - - Image
2008 1 3 18 -13.9 127.6 0 -1 symmetric - - symmetric - - Image
2008 1 3 21 -13.6 127.6 0 -1 symmetric - - symmetric - - Image
2008 1 4 00 -13.3 128.1 35 50 symmetric - - symmetric - - Image
2008 1 4 03 -13.2 128.6 40 55 symmetric - - symmetric - - Image
2008 1 4 06 -13.2 128.9 45 60 symmetric - - symmetric - - Image
2008 1 4 09 -13.1 129.4 50 70 symmetric - - symmetric - - Image
2008 1 4 12 -13.0 129.9 50 70 symmetric - - symmetric - - Image
2008 1 4 15 -13.1 130.4 50 70 symmetric - - symmetric - - Image
2008 1 4 18 -13.2 131.0 45 60 symmetric - - symmetric - - Image
2008 1 4 21 -13.3 131.6 35 50 symmetric - - symmetric - - Image
2008 1 5 00 -13.3 132.2 0 -1 symmetric - - symmetric - - Image
2008 1 5 06 -13.1 133.9 0 -1 symmetric - - symmetric - - Image
2008 1 5 12 -13.2 135.4 0 -1 symmetric - - symmetric - - Image
2008 1 5 18 -13.2 136.8 0 -1 symmetric - - symmetric - - Image
2008 1 6 00 -13.4 138.6 0 -1 symmetric - - symmetric - - Image
2008 1 6 06 -14.3 140.3 0 -1 symmetric - - symmetric - - Image
< Cyclone 200806 2008 Season Cyclone 200811 >

Help